Time;durP1;ratioP1;P1;durP2;ratioP2;P2;SDS_P1;SDS_P2;PMS_P1;PMS_P2;Temp;Humidity;BMP_temperature;BMP_pressure;BME280_temperature;BME280_humidity;BME280_pressure;Samples;Min_cycle;Max_cycle;Signal;HPM_P1;HPM_P2
2022/03/09 00:00:11;;;;;;;14.47;6.57;;;;;;;;;;5035795;28;20600;-67
2022/03/09 00:02:37;;;;;;;12.43;6.57;;;;;;;;;;5020213;28;20634;-67
2022/03/09 00:05:03;;;;;;;12.07;6.50;;;;;;;;;;5035049;28;20201;-67
2022/03/09 00:07:28;;;;;;;11.63;6.17;;;;;;;;;;5018113;28;20233;-67
2022/03/09 00:09:54;;;;;;;13.13;6.27;;;;;;;;;;5025371;28;20182;-67
2022/03/09 00:12:20;;;;;;;12.17;6.73;;;;;;;;;;5020664;28;20243;-67
2022/03/09 00:14:46;;;;;;;14.03;6.97;;;;;;;;;;5024565;28;20195;-68
2022/03/09 00:17:12;;;;;;;14.23;6.73;;;;;;;;;;5023775;28;20190;-67
2022/03/09 00:19:37;;;;;;;12.00;6.77;;;;;;;;;;5022776;28;20257;-67
2022/03/09 00:22:03;;;;;;;18.23;7.07;;;;;;;;;;5019828;28;20823;-67
2022/03/09 00:24:28;;;;;;;18.60;6.90;;;;;;;;;;5020093;28;20190;-68
2022/03/09 00:26:54;;;;;;;11.57;6.87;;;;;;;;;;5021969;28;20205;-66
2022/03/09 00:29:19;;;;;;;12.17;6.73;;;;;;;;;;5025701;28;20240;-66
2022/03/09 00:31:45;;;;;;;15.23;7.13;;;;;;;;;;5021190;28;20280;-67
2022/03/09 00:34:10;;;;;;;18.77;7.60;;;;;;;;;;5031350;28;20220;-67
2022/03/09 00:36:35;;;;;;;16.73;7.20;;;;;;;;;;5022702;28;20285;-67
2022/03/09 00:39:01;;;;;;;12.93;6.33;;;;;;;;;;5019380;28;20211;-67
2022/03/09 00:41:27;;;;;;;13.53;6.17;;;;;;;;;;5021609;28;20651;-68
2022/03/09 00:43:52;;;;;;;14.07;7.60;;;;;;;;;;5025726;28;20507;-68
2022/03/09 00:46:17;;;;;;;13.13;6.77;;;;;;;;;;5026412;28;20555;-67
2022/03/09 00:48:43;;;;;;;15.97;6.60;;;;;;;;;;5027539;28;20269;-68
2022/03/09 00:51:08;;;;;;;12.40;6.30;;;;;;;;;;5023820;28;20299;-67
2022/03/09 00:53:33;;;;;;;13.43;6.70;;;;;;;;;;5026881;28;20248;-67
2022/03/09 00:55:59;;;;;;;14.27;7.00;;;;;;;;;;5023641;28;20186;-66
2022/03/09 00:58:24;;;;;;;12.73;6.23;;;;;;;;;;5027762;28;20251;-67
2022/03/09 01:00:49;;;;;;;16.33;7.10;;;;;;;;;;5028569;28;20218;-67
2022/03/09 01:03:15;;;;;;;12.23;6.53;;;;;;;;;;5023068;28;20282;-67
2022/03/09 01:05:41;;;;;;;17.07;7.33;;;;;;;;;;5022101;28;20248;-67
2022/03/09 01:08:06;;;;;;;13.83;6.70;;;;;;;;;;5024398;28;20576;-66
2022/03/09 01:10:31;;;;;;;15.97;7.30;;;;;;;;;;5025224;28;20197;-66
2022/03/09 01:12:57;;;;;;;16.37;7.60;;;;;;;;;;5023495;28;20269;-66
2022/03/09 01:15:22;;;;;;;13.07;6.43;;;;;;;;;;5023260;28;20236;-67
2022/03/09 01:17:48;;;;;;;12.80;6.50;;;;;;;;;;5022597;28;20520;-66
2022/03/09 01:20:13;;;;;;;15.80;6.93;;;;;;;;;;5023847;28;20635;-69
2022/03/09 01:22:39;;;;;;;12.17;6.60;;;;;;;;;;5023418;28;20263;-68
2022/03/09 01:25:04;;;;;;;16.27;7.97;;;;;;;;;;5003678;28;20548;-67
2022/03/09 01:27:30;;;;;;;15.37;6.57;;;;;;;;;;5023809;28;20178;-66
2022/03/09 01:29:55;;;;;;;14.00;6.70;;;;;;;;;;5027294;28;20178;-67
2022/03/09 01:32:21;;;;;;;14.43;6.93;;;;;;;;;;5023641;28;20298;-67
2022/03/09 01:34:47;;;;;;;13.37;6.93;;;;;;;;;;5022148;28;20189;-67
2022/03/09 01:37:13;;;;;;;16.43;7.47;;;;;;;;;;5025913;28;20190;-67
2022/03/09 01:39:38;;;;;;;14.37;6.80;;;;;;;;;;5023739;28;20209;-66
2022/03/09 01:42:04;;;;;;;15.20;7.03;;;;;;;;;;5025876;28;20630;-68
2022/03/09 01:44:30;;;;;;;12.97;5.97;;;;;;;;;;5021415;28;20186;-67
2022/03/09 01:46:55;;;;;;;15.00;7.30;;;;;;;;;;5022655;28;20273;-67
2022/03/09 01:49:22;;;;;;;14.80;6.87;;;;;;;;;;5027790;28;20185;-67
2022/03/09 01:51:53;;;;;;;14.17;6.90;;;;;;;;;;5022173;28;20209;-67
2022/03/09 01:54:19;;;;;;;13.80;6.70;;;;;;;;;;5017758;28;20201;-66
2022/03/09 01:56:45;;;;;;;14.97;7.23;;;;;;;;;;5024036;28;20276;-67
2022/03/09 01:59:12;;;;;;;13.10;6.77;;;;;;;;;;5017820;28;20222;-67
2022/03/09 02:01:38;;;;;;;15.53;6.47;;;;;;;;;;5024339;28;20193;-66
2022/03/09 02:04:05;;;;;;;16.50;7.63;;;;;;;;;;5022282;28;20182;-67
2022/03/09 02:06:32;;;;;;;16.17;7.07;;;;;;;;;;5023341;28;20604;-67
2022/03/09 02:11:43;;;;;;;14.83;6.87;;;;;;;;;;5021626;28;20201;-67
2022/03/09 02:14:51;;;;;;;14.03;6.87;;;;;;;;;;5018201;28;20646;-66
2022/03/09 02:17:19;;;;;;;15.73;6.87;;;;;;;;;;4996660;28;20186;-67
2022/03/09 02:19:47;;;;;;;15.13;6.60;;;;;;;;;;5013949;28;20678;-66
2022/03/09 02:22:19;;;;;;;13.40;5.90;;;;;;;;;;5024499;28;20181;-70
2022/03/09 02:24:45;;;;;;;15.97;7.00;;;;;;;;;;5023580;28;20197;-67
2022/03/09 02:27:11;;;;;;;14.13;7.00;;;;;;;;;;5022600;28;20193;-68
2022/03/09 02:29:37;;;;;;;14.10;6.63;;;;;;;;;;5024386;28;20273;-67
2022/03/09 02:32:02;;;;;;;12.53;6.20;;;;;;;;;;5023215;28;20206;-67
2022/03/09 02:34:29;;;;;;;16.67;7.03;;;;;;;;;;5021127;28;20281;-67
2022/03/09 02:36:54;;;;;;;13.53;6.60;;;;;;;;;;5023548;28;20190;-67
2022/03/09 02:39:20;;;;;;;14.53;6.63;;;;;;;;;;5021268;28;20198;-65
2022/03/09 02:41:45;;;;;;;16.30;6.83;;;;;;;;;;5024436;28;20262;-67
2022/03/09 02:44:10;;;;;;;11.50;6.00;;;;;;;;;;5020170;28;20209;-68
2022/03/09 02:46:36;;;;;;;14.73;6.27;;;;;;;;;;5022584;28;20181;-67
2022/03/09 02:49:01;;;;;;;14.17;6.17;;;;;;;;;;5022514;28;20189;-67
2022/03/09 02:51:26;;;;;;;12.07;6.40;;;;;;;;;;5025532;28;20186;-68
2022/03/09 02:53:54;;;;;;;15.07;7.17;;;;;;;;;;5023601;28;20559;-67
2022/03/09 02:56:20;;;;;;;12.50;6.30;;;;;;;;;;5024596;28;20181;-67
2022/03/09 02:58:46;;;;;;;13.67;6.43;;;;;;;;;;5022284;28;20585;-67
2022/03/09 03:01:13;;;;;;;16.40;6.60;;;;;;;;;;5023578;28;20209;-67
2022/03/09 03:03:42;;;;;;;13.67;6.80;;;;;;;;;;5030809;28;20464;-68
2022/03/09 03:06:11;;;;;;;13.07;6.40;;;;;;;;;;5019865;28;20230;-67
2022/03/09 03:08:40;;;;;;;15.73;6.23;;;;;;;;;;5021421;28;20186;-67
2022/03/09 03:11:08;;;;;;;14.77;7.00;;;;;;;;;;5022615;28;20288;-67
2022/03/09 03:13:33;;;;;;;14.07;6.47;;;;;;;;;;5019525;28;20284;-67
2022/03/09 03:15:58;;;;;;;13.57;6.03;;;;;;;;;;5024390;28;20252;-67
2022/03/09 03:18:24;;;;;;;16.50;6.30;;;;;;;;;;5023372;28;20198;-66
2022/03/09 03:20:54;;;;;;;14.53;6.33;;;;;;;;;;5024780;28;20542;-66
2022/03/09 03:23:20;;;;;;;15.23;6.00;;;;;;;;;;5020358;28;20525;-66
2022/03/09 03:25:46;;;;;;;12.53;6.33;;;;;;;;;;5031326;28;20609;-66
2022/03/09 03:28:11;;;;;;;13.60;5.80;;;;;;;;;;5028392;28;20247;-66
2022/03/09 03:30:36;;;;;;;13.43;6.10;;;;;;;;;;5029210;28;20263;-67
2022/03/09 03:33:02;;;;;;;14.07;6.47;;;;;;;;;;5028892;28;20344;-67
2022/03/09 03:35:27;;;;;;;11.07;6.10;;;;;;;;;;5026201;28;20189;-67
2022/03/09 03:37:52;;;;;;;14.23;6.43;;;;;;;;;;5027018;28;20218;-67
2022/03/09 03:40:18;;;;;;;13.00;6.30;;;;;;;;;;5022651;28;20210;-67
2022/03/09 03:42:43;;;;;;;14.73;6.40;;;;;;;;;;5020499;28;20186;-67
2022/03/09 03:45:09;;;;;;;13.90;5.60;;;;;;;;;;5018188;28;20189;-67
2022/03/09 03:47:34;;;;;;;13.40;5.77;;;;;;;;;;5020634;28;20269;-67
2022/03/09 03:49:59;;;;;;;10.60;5.57;;;;;;;;;;5022790;28;20568;-66
2022/03/09 03:52:25;;;;;;;17.27;6.83;;;;;;;;;;5030012;28;20291;-67
2022/03/09 03:54:50;;;;;;;12.03;6.07;;;;;;;;;;5025151;28;20216;-66
2022/03/09 03:57:15;;;;;;;12.33;6.10;;;;;;;;;;5024350;28;20241;-67
2022/03/09 03:59:41;;;;;;;12.33;6.17;;;;;;;;;;5021740;28;20623;-66
2022/03/09 04:02:06;;;;;;;12.57;5.97;;;;;;;;;;5025529;28;20212;-65
2022/03/09 04:04:31;;;;;;;12.47;6.30;;;;;;;;;;5021776;28;20273;-67
2022/03/09 04:06:57;;;;;;;14.23;7.13;;;;;;;;;;5034529;28;20320;-66
2022/03/09 04:09:22;;;;;;;15.37;5.77;;;;;;;;;;5024884;28;20197;-66
2022/03/09 04:11:47;;;;;;;13.33;6.27;;;;;;;;;;5030159;28;20185;-67
2022/03/09 04:14:13;;;;;;;13.77;6.27;;;;;;;;;;5020760;28;20198;-67
2022/03/09 04:16:38;;;;;;;13.87;6.57;;;;;;;;;;5041105;28;20186;-67
2022/03/09 04:19:03;;;;;;;16.67;6.43;;;;;;;;;;5028177;28;20651;-67
2022/03/09 04:21:29;;;;;;;14.27;6.57;;;;;;;;;;5031711;28;20282;-67
2022/03/09 04:23:54;;;;;;;15.10;6.60;;;;;;;;;;5025579;28;20229;-67
2022/03/09 04:26:20;;;;;;;15.87;7.00;;;;;;;;;;5028122;28;20182;-68
2022/03/09 04:28:45;;;;;;;13.03;6.43;;;;;;;;;;5022928;28;20705;-65
2022/03/09 04:31:10;;;;;;;16.33;7.00;;;;;;;;;;5024461;28;20209;-67
2022/03/09 04:33:36;;;;;;;13.17;7.23;;;;;;;;;;5031157;28;20217;-67
2022/03/09 04:36:01;;;;;;;13.07;6.10;;;;;;;;;;5024546;28;20178;-67
2022/03/09 04:38:26;;;;;;;15.03;6.40;;;;;;;;;;5029800;28;20243;-67
2022/03/09 04:40:52;;;;;;;14.27;6.67;;;;;;;;;;5029126;28;20297;-67
2022/03/09 04:43:17;;;;;;;13.80;7.13;;;;;;;;;;5025862;28;20226;-67
2022/03/09 04:45:42;;;;;;;14.63;5.90;;;;;;;;;;5026897;28;20182;-67
2022/03/09 04:48:08;;;;;;;14.47;5.83;;;;;;;;;;5028081;28;20292;-67
2022/03/09 04:50:33;;;;;;;15.93;6.50;;;;;;;;;;5029152;28;20194;-68
2022/03/09 04:52:59;;;;;;;15.93;6.40;;;;;;;;;;5026924;28;20198;-67
2022/03/09 04:55:24;;;;;;;13.77;5.90;;;;;;;;;;5027130;28;20205;-67
2022/03/09 04:57:49;;;;;;;14.40;6.67;;;;;;;;;;5025006;28;20248;-67
2022/03/09 05:00:15;;;;;;;15.60;6.83;;;;;;;;;;5026701;28;20769;-69
2022/03/09 05:02:40;;;;;;;10.90;5.77;;;;;;;;;;5024833;28;20328;-66
2022/03/09 05:05:06;;;;;;;14.97;6.53;;;;;;;;;;5027475;28;20210;-66
2022/03/09 05:07:32;;;;;;;14.40;5.97;;;;;;;;;;5027459;28;20225;-67
2022/03/09 05:09:57;;;;;;;14.63;6.20;;;;;;;;;;5024881;28;20186;-67
2022/03/09 05:12:22;;;;;;;12.77;6.57;;;;;;;;;;5020502;28;20194;-67
2022/03/09 05:14:48;;;;;;;16.63;6.70;;;;;;;;;;5019951;28;20186;-66
2022/03/09 05:17:13;;;;;;;13.60;6.87;;;;;;;;;;5025854;28;20676;-66
2022/03/09 05:19:38;;;;;;;13.13;6.57;;;;;;;;;;5023230;28;20578;-67
2022/03/09 05:22:03;;;;;;;15.27;6.83;;;;;;;;;;5026447;28;20205;-67
2022/03/09 05:24:29;;;;;;;13.90;6.30;;;;;;;;;;5023165;28;20190;-66
2022/03/09 05:26:55;;;;;;;14.50;7.03;;;;;;;;;;5024475;28;20692;-67
2022/03/09 05:29:20;;;;;;;15.87;7.20;;;;;;;;;;5024109;28;20182;-67
2022/03/09 05:31:46;;;;;;;13.00;6.40;;;;;;;;;;5023310;28;20288;-67
2022/03/09 05:34:12;;;;;;;17.60;7.53;;;;;;;;;;5024287;28;20277;-67
2022/03/09 05:36:38;;;;;;;15.57;6.73;;;;;;;;;;5030431;28;20248;-67
2022/03/09 05:39:03;;;;;;;15.83;5.93;;;;;;;;;;5024989;28;20596;-67
2022/03/09 05:41:29;;;;;;;14.30;6.37;;;;;;;;;;5021156;28;20281;-67
2022/03/09 05:43:54;;;;;;;15.67;6.70;;;;;;;;;;5026996;28;20197;-67
2022/03/09 05:46:20;;;;;;;15.57;6.87;;;;;;;;;;5024932;28;20190;-67
2022/03/09 05:48:45;;;;;;;15.47;6.47;;;;;;;;;;5025441;28;20194;-67
2022/03/09 05:51:11;;;;;;;15.43;5.97;;;;;;;;;;5023299;28;20178;-67
2022/03/09 05:53:36;;;;;;;12.70;6.20;;;;;;;;;;5025724;28;20228;-67
2022/03/09 05:56:02;;;;;;;14.53;6.83;;;;;;;;;;5024362;28;20199;-67
2022/03/09 05:58:27;;;;;;;15.73;6.83;;;;;;;;;;5021961;28;20194;-66
2022/03/09 06:00:52;;;;;;;15.67;7.73;;;;;;;;;;5022571;28;20214;-66
2022/03/09 06:03:18;;;;;;;13.60;5.83;;;;;;;;;;5027900;28;20248;-66
2022/03/09 06:05:43;;;;;;;14.43;6.37;;;;;;;;;;5024198;28;20202;-66
2022/03/09 06:08:08;;;;;;;14.47;6.87;;;;;;;;;;5028192;28;20212;-67
2022/03/09 06:10:34;;;;;;;13.37;6.70;;;;;;;;;;5023686;28;20217;-67
2022/03/09 06:12:59;;;;;;;11.87;6.00;;;;;;;;;;5020171;28;20192;-68
2022/03/09 06:15:25;;;;;;;13.70;6.03;;;;;;;;;;5025952;28;20194;-66
2022/03/09 06:17:51;;;;;;;14.00;6.20;;;;;;;;;;5022406;28;20213;-67
2022/03/09 06:20:18;;;;;;;11.37;6.03;;;;;;;;;;5021703;28;20213;-67
2022/03/09 06:22:44;;;;;;;16.57;6.27;;;;;;;;;;5013293;28;20197;-68
2022/03/09 06:25:10;;;;;;;12.03;6.27;;;;;;;;;;5022345;28;20190;-68
2022/03/09 06:27:42;;;;;;;12.20;6.57;;;;;;;;;;5018345;28;20220;-67
2022/03/09 06:30:09;;;;;;;13.60;6.90;;;;;;;;;;5020203;28;20181;-67
2022/03/09 06:32:35;;;;;;;12.60;6.40;;;;;;;;;;5017888;28;20218;-66
2022/03/09 06:35:02;;;;;;;12.00;5.73;;;;;;;;;;5024217;28;20221;-67
2022/03/09 06:37:27;;;;;;;15.47;5.90;;;;;;;;;;5025055;28;20677;-66
2022/03/09 06:39:56;;;;;;;15.20;7.07;;;;;;;;;;5021989;28;20237;-67
2022/03/09 06:42:22;;;;;;;13.17;6.13;;;;;;;;;;5023753;28;20682;-66
2022/03/09 06:44:47;;;;;;;13.97;6.67;;;;;;;;;;5025435;28;20222;-67
2022/03/09 06:47:12;;;;;;;14.17;6.90;;;;;;;;;;5023652;28;20190;-67
2022/03/09 06:49:38;;;;;;;13.10;6.47;;;;;;;;;;5034229;28;20519;-67
2022/03/09 06:52:03;;;;;;;15.40;6.33;;;;;;;;;;5028430;28;20548;-67
2022/03/09 06:54:29;;;;;;;12.00;6.50;;;;;;;;;;5033693;28;20188;-67
2022/03/09 06:56:54;;;;;;;13.60;6.57;;;;;;;;;;5027398;28;20190;-68
2022/03/09 06:59:20;;;;;;;11.80;6.37;;;;;;;;;;5038072;28;20269;-67
2022/03/09 07:01:45;;;;;;;14.20;6.70;;;;;;;;;;5026471;28;20203;-67
2022/03/09 07:04:10;;;;;;;13.13;6.30;;;;;;;;;;5034230;28;20538;-68
2022/03/09 07:06:35;;;;;;;12.87;6.87;;;;;;;;;;5024404;28;20288;-67
2022/03/09 07:09:01;;;;;;;13.50;6.70;;;;;;;;;;5024933;28;20178;-67
2022/03/09 07:11:26;;;;;;;14.67;6.40;;;;;;;;;;5020861;28;20273;-67
2022/03/09 07:13:51;;;;;;;13.40;6.43;;;;;;;;;;5032673;28;20177;-67
2022/03/09 07:16:17;;;;;;;14.37;6.60;;;;;;;;;;5025485;28;20560;-67
2022/03/09 07:18:42;;;;;;;11.77;6.20;;;;;;;;;;5042093;28;20511;-66
2022/03/09 07:21:07;;;;;;;11.40;6.27;;;;;;;;;;5026732;28;20286;-67
2022/03/09 07:23:33;;;;;;;12.47;6.20;;;;;;;;;;5037477;28;20177;-67
2022/03/09 07:25:58;;;;;;;11.40;6.30;;;;;;;;;;5023802;28;20186;-67
2022/03/09 07:28:23;;;;;;;13.57;6.37;;;;;;;;;;5035148;28;20176;-67
2022/03/09 07:30:49;;;;;;;17.93;6.53;;;;;;;;;;5023081;28;20325;-67
2022/03/09 07:33:15;;;;;;;10.93;6.13;;;;;;;;;;5033330;28;20216;-67
2022/03/09 07:35:41;;;;;;;13.60;6.57;;;;;;;;;;5021773;28;20614;-67
2022/03/09 07:38:07;;;;;;;12.30;5.97;;;;;;;;;;5026531;28;20185;-68
2022/03/09 07:40:32;;;;;;;12.67;6.10;;;;;;;;;;5023333;28;20210;-67
2022/03/09 07:42:58;;;;;;;13.50;6.00;;;;;;;;;;5025428;28;20188;-67
2022/03/09 07:45:23;;;;;;;14.27;6.10;;;;;;;;;;5017090;28;20175;-67
2022/03/09 07:47:49;;;;;;;12.30;6.13;;;;;;;;;;5024051;28;20235;-68
2022/03/09 07:50:14;;;;;;;13.37;5.80;;;;;;;;;;5021130;28;20191;-67
2022/03/09 07:52:40;;;;;;;10.67;6.00;;;;;;;;;;5028553;28;20453;-69
2022/03/09 07:55:06;;;;;;;10.63;5.70;;;;;;;;;;5032589;28;20193;-67
2022/03/09 07:57:31;;;;;;;12.63;6.03;;;;;;;;;;5036841;28;20525;-67
2022/03/09 07:59:56;;;;;;;12.50;6.47;;;;;;;;;;5034401;28;20209;-67
2022/03/09 08:02:22;;;;;;;10.70;6.00;;;;;;;;;;5029486;28;20197;-68
2022/03/09 08:04:47;;;;;;;15.23;6.50;;;;;;;;;;5033415;28;20173;-68
2022/03/09 08:07:12;;;;;;;12.60;6.10;;;;;;;;;;5035396;28;20230;-68
2022/03/09 08:09:38;;;;;;;19.73;7.03;;;;;;;;;;5033633;28;20189;-67
2022/03/09 08:12:03;;;;;;;12.57;5.67;;;;;;;;;;5031686;28;20232;-67
2022/03/09 08:14:29;;;;;;;15.50;6.43;;;;;;;;;;5033769;28;20208;-67
2022/03/09 08:16:54;;;;;;;13.33;6.03;;;;;;;;;;5030637;28;20186;-67
2022/03/09 08:19:20;;;;;;;14.27;5.90;;;;;;;;;;5041070;28;20566;-67
2022/03/09 08:21:45;;;;;;;13.10;5.93;;;;;;;;;;5030104;28;20243;-67
2022/03/09 08:24:10;;;;;;;9.37;5.67;;;;;;;;;;5039208;28;20190;-68
2022/03/09 08:26:36;;;;;;;16.63;6.27;;;;;;;;;;5032155;28;20190;-67
2022/03/09 08:29:01;;;;;;;12.03;5.40;;;;;;;;;;5035597;28;20701;-67
2022/03/09 08:31:27;;;;;;;13.17;6.00;;;;;;;;;;5026014;28;20209;-66
2022/03/09 08:33:52;;;;;;;12.97;5.80;;;;;;;;;;5039764;28;20186;-66
2022/03/09 08:36:17;;;;;;;9.13;5.37;;;;;;;;;;5030769;28;20549;-67
2022/03/09 08:38:43;;;;;;;11.27;5.90;;;;;;;;;;5041619;28;20185;-67
2022/03/09 08:41:08;;;;;;;8.80;5.47;;;;;;;;;;5032577;28;20248;-67
2022/03/09 08:43:34;;;;;;;9.77;5.53;;;;;;;;;;5030684;28;20190;-67
2022/03/09 08:46:00;;;;;;;8.67;4.80;;;;;;;;;;5026584;28;20308;-67
2022/03/09 08:48:26;;;;;;;10.63;4.80;;;;;;;;;;5038002;28;20190;-67
2022/03/09 08:50:53;;;;;;;11.53;4.80;;;;;;;;;;5031649;28;20192;-68
2022/03/09 08:53:19;;;;;;;9.47;4.93;;;;;;;;;;5038798;28;20217;-68
2022/03/09 08:55:44;;;;;;;11.67;5.23;;;;;;;;;;5032801;28;20201;-69
2022/03/09 08:58:09;;;;;;;8.00;4.87;;;;;;;;;;5030696;28;20210;-68
2022/03/09 09:00:35;;;;;;;13.93;5.20;;;;;;;;;;5026358;28;20201;-67
2022/03/09 09:03:00;;;;;;;8.73;5.00;;;;;;;;;;5025809;28;20299;-67
2022/03/09 09:05:26;;;;;;;10.30;4.80;;;;;;;;;;5026885;28;20537;-67
2022/03/09 09:07:51;;;;;;;9.87;5.17;;;;;;;;;;5025121;28;21233;-67
2022/03/09 09:10:16;;;;;;;9.37;5.10;;;;;;;;;;5031063;28;20251;-67
2022/03/09 09:12:42;;;;;;;11.13;5.10;;;;;;;;;;5029538;28;20626;-68
2022/03/09 09:15:08;;;;;;;7.23;4.47;;;;;;;;;;5039031;28;20253;-67
2022/03/09 09:17:34;;;;;;;8.73;4.63;;;;;;;;;;5026446;28;20182;-67
2022/03/09 09:19:59;;;;;;;7.50;4.80;;;;;;;;;;5036104;28;20471;-66
2022/03/09 09:22:25;;;;;;;9.23;4.87;;;;;;;;;;5029609;28;20217;-68
2022/03/09 09:24:50;;;;;;;8.83;4.73;;;;;;;;;;5034811;28;20304;-67
2022/03/09 09:27:16;;;;;;;10.97;5.03;;;;;;;;;;5031213;28;20680;-67
2022/03/09 09:29:41;;;;;;;8.70;4.53;;;;;;;;;;5032481;28;20182;-67
2022/03/09 09:32:07;;;;;;;10.23;5.13;;;;;;;;;;5028825;28;20201;-66
2022/03/09 09:34:32;;;;;;;7.37;4.73;;;;;;;;;;5037547;28;20470;-67
2022/03/09 09:36:59;;;;;;;10.97;5.50;;;;;;;;;;5027434;28;20186;-67
2022/03/09 09:39:24;;;;;;;10.83;5.07;;;;;;;;;;5027448;28;20210;-67
2022/03/09 09:41:52;;;;;;;8.80;5.27;;;;;;;;;;5027023;28;20196;-67
2022/03/09 09:44:20;;;;;;;8.77;4.53;;;;;;;;;;5025420;28;20194;-66
2022/03/09 09:46:45;;;;;;;10.93;5.00;;;;;;;;;;5037252;28;20185;-67
2022/03/09 09:49:13;;;;;;;10.17;5.33;;;;;;;;;;5032117;28;20232;-66
2022/03/09 09:51:41;;;;;;;9.33;4.93;;;;;;;;;;5026448;28;20181;-67
2022/03/09 09:54:07;;;;;;;9.20;4.90;;;;;;;;;;5025145;28;20217;-67
2022/03/09 09:56:38;;;;;;;10.03;5.23;;;;;;;;;;5032744;28;20260;-67
2022/03/09 09:59:04;;;;;;;9.80;4.83;;;;;;;;;;5024903;28;20247;-67
2022/03/09 10:01:29;;;;;;;9.77;5.27;;;;;;;;;;5032199;28;20186;-67
2022/03/09 10:03:55;;;;;;;10.35;5.40;;;;;;;;;;5027141;28;20193;-67
2022/03/09 10:06:20;;;;;;;9.43;5.37;;;;;;;;;;5022117;28;20229;-67
2022/03/09 10:09:09;;;;;;;10.37;5.53;;;;;;;;;;5026372;28;20193;-67
2022/03/09 10:11:44;;;;;;;13.20;5.37;;;;;;;;;;5031908;28;20255;-67
2022/03/09 10:14:09;;;;;;;11.70;5.33;;;;;;;;;;5029730;28;20185;-67
2022/03/09 10:16:35;;;;;;;12.67;5.87;;;;;;;;;;5022630;28;20645;-67
2022/03/09 10:19:01;;;;;;;8.17;4.80;;;;;;;;;;5033047;28;20190;-67
2022/03/09 10:21:29;;;;;;;7.80;5.07;;;;;;;;;;5023786;28;20730;-67
2022/03/09 10:24:02;;;;;;;13.37;5.50;;;;;;;;;;5029534;28;20554;-67
2022/03/09 10:26:43;;;;;;;11.95;5.60;;;;;;;;;;5030464;28;20674;-67
2022/03/09 10:29:14;;;;;;;9.50;5.23;;;;;;;;;;5029163;28;20212;-67
2022/03/09 10:31:41;;;;;;;10.25;5.70;;;;;;;;;;5023052;28;20230;-67
2022/03/09 10:34:12;;;;;;;8.25;4.88;;;;;;;;;;5036269;28;20649;-67
2022/03/09 10:36:52;;;;;;;9.48;5.70;;;;;;;;;;5023029;28;20201;-66
2022/03/09 10:39:18;;;;;;;11.98;5.97;;;;;;;;;;5033999;28;20196;-67
2022/03/09 10:41:43;;;;;;;10.82;5.88;;;;;;;;;;5029011;28;20653;-67
2022/03/09 10:44:12;;;;;;;7.53;5.38;;;;;;;;;;5034097;28;21385;-67
2022/03/09 10:46:42;;;;;;;8.55;5.60;;;;;;;;;;5028805;28;20176;-67
2022/03/09 10:49:08;;;;;;;9.20;5.55;;;;;;;;;;5029012;28;20189;-67
2022/03/09 10:51:37;;;;;;;8.48;5.25;;;;;;;;;;5031681;28;20182;-67
2022/03/09 10:54:16;;;;;;;9.93;5.55;;;;;;;;;;5026109;28;20284;-68
2022/03/09 10:56:42;;;;;;;11.32;5.82;;;;;;;;;;5032443;28;20186;-67
2022/03/09 10:59:13;;;;;;;11.25;5.35;;;;;;;;;;5029219;28;20189;-67
2022/03/09 11:01:39;;;;;;;9.77;5.57;;;;;;;;;;5035466;28;20199;-67
2022/03/09 11:04:16;;;;;;;12.23;6.03;;;;;;;;;;5026548;28;20277;-67
2022/03/09 11:06:46;;;;;;;10.60;5.70;;;;;;;;;;5036084;28;20235;-67
2022/03/09 11:09:14;;;;;;;9.88;6.03;;;;;;;;;;5030569;28;20243;-67
2022/03/09 11:11:40;;;;;;;11.77;5.90;;;;;;;;;;5037097;28;20189;-67
2022/03/09 11:14:06;;;;;;;11.88;6.60;;;;;;;;;;5029105;28;20542;-67
2022/03/09 11:16:31;;;;;;;10.45;5.97;;;;;;;;;;5032386;28;20196;-67
2022/03/09 11:18:57;;;;;;;11.63;6.30;;;;;;;;;;5033585;28;20181;-68
2022/03/09 11:21:22;;;;;;;10.98;6.60;;;;;;;;;;5029429;28;20220;-67
2022/03/09 11:23:48;;;;;;;9.88;6.50;;;;;;;;;;5034267;28;20633;-67
2022/03/09 11:26:21;;;;;;;13.85;7.05;;;;;;;;;;5020586;28;20186;-67
2022/03/09 11:28:46;;;;;;;11.48;6.40;;;;;;;;;;5026791;28;20268;-66
2022/03/09 11:31:14;;;;;;;11.77;6.80;;;;;;;;;;5024035;28;20296;-66
2022/03/09 11:33:53;;;;;;;11.05;6.32;;;;;;;;;;5032617;28;20195;-68
2022/03/09 11:36:21;;;;;;;9.15;6.05;;;;;;;;;;5024991;28;20590;-67
2022/03/09 11:38:53;;;;;;;9.40;5.82;;;;;;;;;;5027356;28;20673;-67
2022/03/09 11:41:27;;;;;;;9.25;5.90;;;;;;;;;;5020693;28;20205;-67
2022/03/09 11:43:54;;;;;;;9.80;5.70;;;;;;;;;;5017480;28;20278;-67
2022/03/09 11:46:20;;;;;;;12.23;7.10;;;;;;;;;;5020495;28;20257;-68
2022/03/09 11:49:03;;;;;;;13.13;6.75;;;;;;;;;;5030896;28;20280;-67
2022/03/09 11:51:29;;;;;;;10.20;5.95;;;;;;;;;;5021445;28;20170;-67
2022/03/09 11:53:56;;;;;;;9.82;6.28;;;;;;;;;;5021015;28;20249;-67
2022/03/09 11:56:29;;;;;;;10.98;6.18;;;;;;;;;;5021933;28;20189;-67
2022/03/09 11:59:12;;;;;;;13.40;6.57;;;;;;;;;;5020402;28;20186;-67
2022/03/09 12:01:55;;;;;;;11.73;6.57;;;;;;;;;;5018949;28;20173;-67
2022/03/09 12:04:40;;;;;;;12.20;6.50;;;;;;;;;;5016405;28;20213;-67
2022/03/09 12:07:06;;;;;;;11.13;6.97;;;;;;;;;;5022866;28;20258;-67
2022/03/09 12:09:54;;;;;;;14.32;6.93;;;;;;;;;;5021203;28;20193;-67
2022/03/09 12:12:19;;;;;;;12.75;6.53;;;;;;;;;;5019319;28;20688;-68
2022/03/09 12:15:12;;;;;;;12.05;6.50;;;;;;;;;;5019124;28;20190;-67
2022/03/09 12:17:43;;;;;;;13.23;7.35;;;;;;;;;;5022824;28;20530;-67
2022/03/09 12:20:28;;;;;;;14.18;6.47;;;;;;;;;;5019842;28;20202;-67
2022/03/09 12:22:56;;;;;;;11.02;6.38;;;;;;;;;;5022484;28;20198;-68
2022/03/09 12:25:43;;;;;;;11.40;6.40;;;;;;;;;;5037818;28;20186;-68
2022/03/09 12:28:23;;;;;;;10.73;6.93;;;;;;;;;;5030498;28;20193;-67
2022/03/09 12:30:56;;;;;;;11.38;7.00;;;;;;;;;;5027217;28;20778;-68
2022/03/09 12:33:28;;;;;;;10.98;6.93;;;;;;;;;;5024482;28;20667;-67
2022/03/09 12:36:05;;;;;;;11.00;7.18;;;;;;;;;;5022715;28;20228;-67
2022/03/09 12:38:39;;;;;;;13.43;7.25;;;;;;;;;;5032733;28;20183;-68
2022/03/09 12:41:05;;;;;;;10.60;6.78;;;;;;;;;;5030394;28;20217;-68
2022/03/09 12:43:50;;;;;;;12.13;7.40;;;;;;;;;;5036395;28;20532;-67
2022/03/09 12:46:16;;;;;;;9.80;6.65;;;;;;;;;;5029426;28;20575;-68
2022/03/09 12:48:41;;;;;;;14.98;7.75;;;;;;;;;;5039597;28;20264;-67
2022/03/09 12:51:07;;;;;;;11.82;7.38;;;;;;;;;;5027159;28;20177;-67
2022/03/09 12:53:33;;;;;;;11.48;7.00;;;;;;;;;;5039045;28;20197;-68
2022/03/09 12:56:19;;;;;;;13.52;8.00;;;;;;;;;;5033026;28;20205;-67
2022/03/09 12:58:44;;;;;;;12.63;7.72;;;;;;;;;;5033737;28;20189;-68
2022/03/09 13:01:13;;;;;;;13.35;7.57;;;;;;;;;;5030109;28;20206;-68
2022/03/09 13:03:42;;;;;;;11.15;7.20;;;;;;;;;;5033054;28;20182;-67
2022/03/09 13:06:25;;;;;;;13.98;7.70;;;;;;;;;;5029893;28;20248;-67
2022/03/09 13:08:52;;;;;;;10.65;7.20;;;;;;;;;;5027557;28;20194;-67
2022/03/09 13:11:30;;;;;;;13.50;7.95;;;;;;;;;;5042884;28;21208;-67
2022/03/09 13:13:56;;;;;;;13.32;7.50;;;;;;;;;;5028661;28;20560;-67
2022/03/09 13:16:25;;;;;;;14.88;7.43;;;;;;;;;;5043799;28;20251;-68
2022/03/09 13:18:53;;;;;;;17.52;8.10;;;;;;;;;;5028291;28;20277;-67
2022/03/09 13:21:24;;;;;;;13.65;7.43;;;;;;;;;;5035138;28;20209;-67
2022/03/09 13:23:49;;;;;;;16.33;8.18;;;;;;;;;;5019341;28;20657;-67
2022/03/09 13:26:23;;;;;;;13.48;7.78;;;;;;;;;;5040760;28;20282;-67
2022/03/09 13:28:54;;;;;;;12.50;7.80;;;;;;;;;;5030579;28;20298;-67
2022/03/09 13:31:20;;;;;;;13.00;7.90;;;;;;;;;;5036866;28;20281;-67
2022/03/09 13:33:47;;;;;;;16.38;8.55;;;;;;;;;;5025600;28;20454;-67
2022/03/09 13:36:15;;;;;;;12.82;7.47;;;;;;;;;;5027968;28;20990;-67
2022/03/09 13:38:52;;;;;;;11.60;7.38;;;;;;;;;;5033915;28;20189;-66
2022/03/09 13:41:18;;;;;;;13.30;7.68;;;;;;;;;;5031133;28;20213;-66
2022/03/09 13:43:43;;;;;;;13.32;7.80;;;;;;;;;;5034706;28;20187;-67
2022/03/09 13:46:12;;;;;;;13.75;8.13;;;;;;;;;;5024009;28;20210;-67
2022/03/09 13:48:38;;;;;;;12.82;7.65;;;;;;;;;;5031184;28;20208;-67
2022/03/09 13:51:03;;;;;;;14.38;8.23;;;;;;;;;;5026775;28;20179;-68
2022/03/09 13:53:34;;;;;;;12.02;7.18;;;;;;;;;;5042512;28;20698;-67
2022/03/09 13:56:02;;;;;;;13.30;8.50;;;;;;;;;;5028340;28;20186;-67
2022/03/09 13:58:38;;;;;;;14.68;8.00;;;;;;;;;;5036032;28;20201;-67
2022/03/09 14:01:07;;;;;;;11.73;7.28;;;;;;;;;;5027297;28;20202;-69
2022/03/09 14:03:41;;;;;;;14.20;7.55;;;;;;;;;;5027050;28;20243;-67
2022/03/09 14:06:23;;;;;;;14.27;8.00;;;;;;;;;;5029671;28;20230;-67
2022/03/09 14:08:53;;;;;;;13.07;8.30;;;;;;;;;;5033022;28;20178;-67
2022/03/09 14:11:22;;;;;;;15.48;8.27;;;;;;;;;;5035927;28;20174;-67
2022/03/09 14:14:08;;;;;;;15.43;7.80;;;;;;;;;;5031068;28;20669;-68
2022/03/09 14:16:39;;;;;;;16.30;7.95;;;;;;;;;;5040357;28;20260;-67
2022/03/09 14:19:12;;;;;;;13.40;7.68;;;;;;;;;;5016969;28;20545;-67
2022/03/09 14:21:39;;;;;;;14.32;7.70;;;;;;;;;;5037056;28;20229;-67
2022/03/09 14:24:05;;;;;;;13.00;8.20;;;;;;;;;;5024779;28;20393;-67
2022/03/09 14:26:37;;;;;;;15.32;7.97;;;;;;;;;;5038972;28;20608;-68
2022/03/09 14:29:03;;;;;;;14.32;8.18;;;;;;;;;;5029680;28;20178;-70
2022/03/09 14:31:29;;;;;;;14.10;7.80;;;;;;;;;;5035686;28;20206;-67
2022/03/09 14:33:56;;;;;;;11.65;7.25;;;;;;;;;;5029930;28;20181;-68